• Join FlightAware (Why Join?)
  • Login
  • US Flag 
Trick or treat! (Boo!!) 
07:29AM EDT


 

Airport Tracker/Info


-or-


 

Live Flight TrackerFlight Track Log ✈ AAY805 ✈ 06-Mar-2014 ✈ KCHA - KPIE

Flight Track Log - Related Links

Times and Time Zones

All times are in EST time to prevent confusion due to time zone crossing. See the AAY805 flight status page for this flight to view local times or setup timezone preferences in your user account.

Time Position Orientation Groundspeed Altitude Reporting Facility
EST Latitude Longitude Course Direction KTS MPH feet Rate Location/Type
09:07AM 34.8931 -85.1783 161° South 248 285 6,900  Level Atlanta Center
09:08AM 34.8244 -85.1369 154° Southeast 272 313 9,700 2,040 Climbing Atlanta Center
09:09AM 34.7478 -85.0931 155° Southeast 272 313 11,000 1,140 Climbing Atlanta Center
09:10AM 34.6708 -85.0489 155° Southeast 303 349 12,000 1,560 Climbing Atlanta Center
09:11AM 34.4892 -84.8882 161° South  Level FlightAware Approximate
09:11AM 34.5753 -84.9897 153° Southeast 359 413 14,200  Level Atlanta Center
09:12AM 34.4694 -84.9206 152° Southeast 384 442 16,400 2,040 Climbing Atlanta Center
09:13AM 34.3633 -84.8592 154° Southeast 411 473 18,300 1,860 Climbing Atlanta Center
09:14AM 34.2531 -84.7978 155° Southeast 423 487 20,200 1,800 Climbing Atlanta Center
09:15AM 34.1408 -84.7339 155° Southeast 433 498 22,000 2,100 Climbing Atlanta Center
09:16AM 34.0306 -84.6681 154° Southeast 438 504 24,400 2,400 Climbing Atlanta Center
09:17AM 33.9244 -84.6147 157° South 433 498 26,900 2,220 Climbing Atlanta Center
09:18AM 33.8158 -84.6014 174° South 397 457 28,900 1,620 Climbing Atlanta Center
09:19AM 33.7094 -84.6006 180° South 397 457 30,200 1,020 Climbing Atlanta Center
09:20AM 33.6053 -84.5950 177° South 385 443 31,000 360 Climbing Atlanta Center
09:21AM 33.4967 -84.5869 176° South 385 443 31,000 840 Level Atlanta Center
09:22AM 33.3903 -84.5761 175° South 385 443 32,700 960 Climbing Atlanta Center
09:23AM 33.2942 -84.5681 176° South 372 428 33,000 120 Climbing Atlanta Center
09:24AM 33.1961 -84.5625 177° South 359 413 33,000  Level Atlanta Center
09:25AM 33.0961 -84.5594 179° South 359 413 33,000  Level Atlanta Center
09:26AM 32.9981 -84.5514 176° South 359 413 33,000  Level Atlanta Center
09:27AM 32.8978 -84.5436 176° South 364 419 33,000  Level Atlanta Center
09:28AM 32.8100 -84.5356 176° South 364 419 33,000  Level Atlanta Center
09:29AM 32.6994 -84.5250 175° South 364 419 33,000  Level Atlanta Center
09:30AM 32.6014 -84.5172 176° South 364 419 33,000  Level Atlanta Center
09:31AM 32.5033 -84.5117 177° South 364 419 33,000  Level Atlanta Center
09:32AM 32.4053 -84.5039 176° South 364 419 33,000  Level Atlanta Center
09:33AM 32.3072 -84.4958 176° South 364 419 33,000  Level Atlanta Center
09:34AM 32.2092 -84.4906 177° South 364 419 33,000  Level Atlanta Center
09:35AM 32.1131 -84.4828 176° South 364 419 33,000  Level Atlanta Center
09:36AM 32.0150 -84.4772 177° South 359 413 33,000  Level Atlanta Center
09:37AM 31.9228 -84.4689 176° South 358 412 33,000  Level Jacksonville Center
09:38AM 31.8269 -84.4625 177° South 358 412 33,000  Level Jacksonville Center
09:39AM 31.7289 -84.4558 177° South 358 412 33,000  Level Jacksonville Center
09:40AM 31.6331 -84.4494 177° South 358 412 33,000  Level Jacksonville Center
09:41AM 31.5467 -84.4942 204° Southwest 336 387 33,000  Level Jacksonville Center
09:42AM 31.5183 -84.6033 253° West 310 357 33,000  Level Jacksonville Center
09:43AM 31.5061 -84.7128 263° West 316 364 33,000  Level Jacksonville Center
09:44AM 31.4569 -84.7994 236° Southwest 322 371 33,000  Level Jacksonville Center
09:45AM 31.3711 -84.8147 189° South 286 329 33,000  Level Jacksonville Center
09:46AM 31.2758 -84.7717 159° South 295 339 33,000  Level Jacksonville Center
09:47AM 31.1889 -84.7139 150° Southeast 313 360 33,000  Level Jacksonville Center
09:48AM 31.0997 -84.6614 153° Southeast 336 387 33,000  Level Jacksonville Center
09:49AM 31.0086 -84.6158 157° South 351 404 33,000  Level Jacksonville Center
09:50AM 30.9172 -84.5708 157° South 357 411 33,000  Level Jacksonville Center
09:51AM 30.8261 -84.5208 155° Southeast 357 411 33,000  Level Jacksonville Center
09:52AM 30.7328 -84.4683 154° Southeast 357 411 33,000  Level Jacksonville Center
09:53AM 30.6417 -84.4186 155° Southeast 357 411 33,000  Level Jacksonville Center
09:54AM 30.5503 -84.3689 155° Southeast 357 411 33,000  Level Jacksonville Center
09:55AM 30.4694 -84.3194 152° Southeast 357 411 33,000  Level Jacksonville Center
09:56AM 30.3803 -84.2628 151° Southeast 362 417 33,000  Level Jacksonville Center
09:57AM 30.2911 -84.2014 149° Southeast 369 425 33,000  Level Jacksonville Center
09:58AM 30.2019 -84.1422 150° Southeast 369 425 33,000  Level Jacksonville Center
09:59AM 30.1064 -84.0811 151° Southeast 374 430 33,000  Level Jacksonville Center
10:00AM 30.0131 -84.0200 150° Southeast 379 436 33,000  Level Jacksonville Center
10:01AM 29.9197 -83.9589 150° Southeast 379 436 33,000  Level Jacksonville Center
10:02AM 29.8219 -83.8981 152° Southeast 384 442 33,000  Level Jacksonville Center
10:03AM 29.7264 -83.8350 150° Southeast 389 448 33,000  Level Jacksonville Center
10:04AM 29.6289 -83.7694 150° Southeast 394 453 33,000  Level Jacksonville Center
10:05AM 29.5289 -83.7089 152° Southeast 394 453 33,000 -240 Level Jacksonville Center
10:06AM 29.4272 -83.6436 151° Southeast 406 467 32,600 -1,740 Descending Jacksonville Center
10:07AM 29.3231 -83.5808 152° Southeast 418 481 29,600 -2,760 Descending Jacksonville Center
10:08AM 29.2211 -83.5136 150° Southeast 418 481 27,100 -2,160 Descending Jacksonville Center
10:09AM 29.1214 -83.4489 150° Southeast 423 487 25,300 -1,800 Descending Jacksonville Center
10:10AM 29.0214 -83.3842 150° Southeast 413 475 23,600 -1,740 Descending Jacksonville Center
10:11AM 28.9233 -83.3219 151° Southeast 408 470 21,900 -1,680 Descending Jacksonville Center
10:13AM 28.7214 -83.1922 151° Southeast 388 447 18,200 -1,740 Descending Miami Center
10:14AM 28.6167 -83.1333 154° Southeast 370 426 16,600 -1,680 Descending Tampa TRACON
10:15AM 28.5333 -83.0833 152° Southeast 360 414 15,100 -1,560 Descending Tampa TRACON
10:16AM 28.4500 -83.0167 145° Southeast 352 405 13,500 -1,560 Descending Tampa TRACON
10:17AM 28.3833 -82.9833 156° South 316 364 12,200 -1,740 Descending Tampa TRACON
10:18AM 28.3000 -82.9333 152° Southeast 270 311 10,100 -2,100 Descending Tampa TRACON
10:19AM 28.2500 -82.8667 130° Southeast 273 314 7,900 -2,160 Descending Tampa TRACON
10:20AM 28.2000 -82.8000 130° Southeast 265 305 5,800 -1,980 Descending Tampa TRACON
10:21AM 28.1667 -82.7500 127° Southeast 222 255 4,000 -1,440 Descending Tampa TRACON
10:22AM 28.1167 -82.7333 164° South 180 207 3,000 -1,080 Descending Tampa TRACON
10:23AM 28.0833 -82.7167 156° South 157 181 1,900 -720 Descending Tampa TRACON
10:24AM 28.0333 -82.7167 180° South 154 177 1,600 -300 Descending Tampa TRACON
10:25AM 28.0000 -82.7000 156° South 137 158 1,400 -480 Descending Tampa TRACON
10:26AM 27.9667 -82.7000 180° South 133 153 700 -720 Descending Tampa TRACON